createdAt,value
2023-04-05T00:00:36.517Z,9.29
2023-04-05T00:03:10.172Z,9.34
2023-04-05T00:05:43.047Z,9.33
2023-04-05T00:08:23.702Z,9.29
2023-04-05T00:10:56.516Z,9.21
2023-04-05T00:13:30.595Z,9.23
2023-04-05T00:16:03.335Z,9.21
2023-04-05T00:18:38.333Z,9.15
2023-04-05T00:21:11.355Z,9.15
2023-04-05T00:23:45.128Z,9.10
2023-04-05T00:26:18.487Z,9.09
2023-04-05T00:28:55.699Z,9.11
2023-04-05T00:31:30.528Z,9.06
2023-04-05T00:34:05.909Z,8.96
2023-04-05T00:36:38.581Z,8.88
2023-04-05T00:39:11.400Z,8.93
2023-04-05T00:41:46.273Z,8.99
2023-04-05T00:44:21.717Z,8.94
2023-04-05T00:46:54.688Z,8.91
2023-04-05T00:49:27.631Z,8.87
2023-04-05T00:52:00.716Z,8.86
2023-04-05T00:54:34.353Z,8.82
2023-04-05T00:57:07.690Z,8.76
2023-04-05T00:59:42.051Z,8.77
2023-04-05T01:02:19.169Z,8.73
2023-04-05T01:05:01.529Z,8.72
2023-04-05T01:07:42.216Z,8.70
2023-04-05T01:10:18.974Z,8.69
2023-04-05T01:12:52.307Z,8.63
2023-04-05T01:15:26.322Z,8.63
2023-04-05T01:18:02.132Z,8.60
2023-04-05T01:20:40.738Z,8.57
2023-04-05T01:23:31.138Z,8.57
2023-04-05T01:26:46.689Z,8.54
2023-04-05T01:29:46.057Z,8.47
2023-04-05T01:32:41.011Z,8.46
2023-04-05T01:35:23.340Z,8.40
2023-04-05T01:38:02.365Z,8.42
2023-04-05T01:40:38.607Z,8.37
2023-04-05T01:43:15.320Z,8.37
2023-04-05T01:45:49.425Z,8.40
2023-04-05T01:48:22.223Z,8.41
2023-04-05T01:50:54.916Z,8.32
2023-04-05T01:53:27.827Z,8.30
2023-04-05T01:56:01.164Z,8.26
2023-04-05T01:58:34.691Z,8.29
2023-04-05T02:01:09.076Z,8.27
2023-04-05T02:03:42.100Z,8.20
2023-04-05T02:06:15.324Z,8.15
2023-04-05T02:08:47.967Z,8.07
2023-04-05T02:11:22.966Z,8.14
2023-04-05T02:13:55.816Z,8.04
2023-04-05T02:16:33.125Z,8.06
2023-04-05T02:19:05.991Z,8.02
2023-04-05T02:21:39.063Z,7.99
2023-04-05T02:24:11.743Z,7.99
2023-04-05T02:26:44.422Z,7.99
2023-04-05T02:29:17.228Z,7.91
2023-04-05T02:31:51.461Z,7.89
2023-04-05T02:34:24.234Z,7.89
2023-04-05T02:36:57.126Z,7.79
2023-04-05T02:39:30.158Z,7.74
2023-04-05T02:42:02.884Z,7.81
2023-04-05T02:44:35.735Z,7.80
2023-04-05T02:47:09.778Z,7.77
2023-04-05T02:49:42.985Z,7.68
2023-04-05T02:52:15.870Z,7.71
2023-04-05T02:54:51.558Z,7.75
2023-04-05T02:57:30.106Z,7.70
2023-04-05T03:00:13.160Z,7.65
2023-04-05T03:02:47.412Z,7.59
2023-04-05T03:05:20.946Z,7.58
2023-04-05T03:07:58.156Z,7.60
2023-04-05T03:10:36.134Z,7.58
2023-04-05T03:13:18.983Z,7.55
2023-04-05T03:15:54.838Z,7.52
2023-04-05T03:18:30.633Z,7.53
2023-04-05T03:21:12.383Z,7.49
2023-04-05T03:23:56.244Z,7.46
2023-04-05T03:26:34.749Z,7.46
2023-04-05T03:29:07.793Z,7.43
2023-04-05T03:31:43.578Z,7.39
2023-04-05T03:34:18.001Z,7.33
2023-04-05T03:36:52.565Z,7.29
2023-04-05T03:39:54.699Z,7.24
2023-04-05T03:42:27.970Z,7.31
2023-04-05T03:45:01.576Z,7.33
2023-04-05T03:47:34.874Z,7.39
2023-04-05T03:50:12.432Z,7.30
2023-04-05T03:52:45.217Z,7.34
2023-04-05T03:55:18.825Z,7.26
2023-04-05T03:57:53.623Z,7.24
2023-04-05T04:00:34.167Z,7.26
2023-04-05T04:03:21.664Z,7.29
2023-04-05T04:05:59.457Z,7.21
2023-04-05T04:08:34.055Z,7.20
2023-04-05T04:11:07.469Z,7.20
2023-04-05T04:13:43.570Z,7.21
2023-04-05T04:16:27.383Z,7.16
2023-04-05T04:19:15.641Z,7.10
2023-04-05T04:22:10.304Z,7.12
2023-04-05T04:24:54.742Z,7.05
2023-04-05T04:27:46.749Z,7.06
2023-04-05T04:30:35.217Z,7.04
2023-04-05T04:33:38.056Z,7.01
2023-04-05T04:36:34.633Z,6.98
2023-04-05T04:39:48.781Z,6.95
2023-04-05T04:43:00.263Z,6.93
2023-04-05T04:45:56.163Z,6.93
2023-04-05T04:48:46.682Z,6.86
2023-04-05T04:51:31.472Z,6.87
2023-04-05T04:54:04.487Z,6.78
2023-04-05T04:56:38.490Z,6.78
2023-04-05T04:59:11.228Z,6.78
2023-04-05T05:01:46.600Z,6.79
2023-04-05T05:04:19.472Z,6.87
2023-04-05T05:06:53.157Z,6.81
2023-04-05T05:09:26.425Z,6.81
2023-04-05T05:12:04.798Z,6.78
2023-04-05T05:14:37.545Z,6.75
2023-04-05T05:17:10.586Z,6.70
2023-04-05T05:19:43.525Z,6.69
2023-04-05T05:22:16.261Z,6.70
2023-04-05T05:24:49.147Z,6.70
2023-04-05T05:27:23.381Z,6.68
2023-04-05T05:29:56.740Z,6.63
2023-04-05T05:32:31.958Z,6.68
2023-04-05T05:35:05.361Z,6.66
2023-04-05T05:37:40.003Z,6.70
2023-04-05T05:40:13.612Z,6.74
2023-04-05T05:42:47.866Z,6.73
2023-04-05T05:45:20.808Z,6.68
2023-04-05T05:47:53.513Z,6.69
2023-04-05T05:50:26.496Z,6.71
2023-04-05T05:53:01.029Z,6.69
2023-04-05T06:01:30.765Z,6.71
2023-04-05T06:04:03.837Z,6.76
2023-04-05T06:06:37.901Z,6.63
2023-04-05T06:09:11.119Z,6.64
2023-04-05T06:11:55.277Z,6.64
2023-04-05T06:14:30.064Z,6.61
2023-04-05T06:17:04.292Z,6.65
2023-04-05T06:19:38.417Z,6.61
2023-04-05T06:22:11.206Z,6.57
2023-04-05T06:24:44.087Z,6.60
2023-04-05T06:27:17.124Z,6.61
2023-04-05T06:29:49.888Z,6.66
2023-04-05T06:32:24.349Z,6.67
2023-04-05T06:34:57.099Z,6.71
2023-04-05T06:37:29.938Z,6.73
2023-04-05T06:40:02.872Z,6.80
2023-04-05T06:42:35.759Z,6.84
2023-04-05T06:45:12.324Z,6.84
2023-04-05T06:47:46.760Z,6.71
2023-04-05T06:50:22.049Z,6.79
2023-04-05T06:52:57.528Z,6.84
2023-04-05T06:55:31.146Z,6.90
2023-04-05T06:58:03.988Z,7.01
2023-04-05T07:00:37.416Z,7.06
2023-04-05T07:03:11.662Z,7.08
2023-04-05T07:05:52.034Z,7.26
2023-04-05T07:08:25.030Z,7.33
2023-04-05T07:10:57.752Z,7.34
2023-04-05T07:13:31.159Z,7.36
2023-04-05T07:16:04.648Z,7.42
2023-04-05T07:18:38.810Z,7.45
2023-04-05T07:21:12.124Z,7.53
2023-04-05T07:23:44.951Z,7.63
2023-04-05T07:26:18.023Z,7.70
2023-04-05T07:28:50.807Z,7.72
2023-04-05T07:31:23.674Z,7.87
2023-04-05T07:33:58.166Z,8.08
2023-04-05T07:36:31.798Z,8.03
2023-04-05T07:39:05.328Z,8.10
2023-04-05T07:41:38.219Z,8.22
2023-04-05T07:44:11.886Z,8.31
2023-04-05T07:46:48.973Z,8.30
2023-04-05T07:49:27.699Z,8.40
2023-04-05T07:52:00.532Z,8.41
2023-04-05T07:54:34.253Z,8.47
2023-04-05T07:57:07.341Z,8.61
2023-04-05T07:59:40.266Z,8.65
2023-04-05T08:02:14.864Z,8.63
2023-04-05T08:04:49.155Z,9.57
2023-04-05T08:07:22.049Z,10.08
2023-04-05T08:09:57.615Z,9.89
2023-04-05T08:12:32.052Z,9.86
2023-04-05T08:15:05.432Z,10.09
2023-04-05T08:17:38.454Z,10.60
2023-04-05T08:20:13.990Z,10.51
2023-04-05T08:22:46.698Z,11.06
2023-04-05T08:25:19.492Z,11.59
2023-04-05T08:27:52.449Z,11.46
2023-04-05T08:30:25.395Z,11.60
2023-04-05T08:32:57.991Z,11.78
2023-04-05T08:35:32.407Z,11.95
2023-04-05T08:38:05.613Z,12.23
2023-04-05T08:40:42.587Z,12.43
2023-04-05T08:43:24.017Z,12.42
2023-04-05T08:45:59.744Z,12.55
2023-04-05T08:48:35.033Z,12.66
2023-04-05T08:51:09.470Z,12.57
2023-04-05T08:53:44.926Z,12.74
2023-04-05T08:56:22.362Z,12.87
2023-04-05T08:59:01.485Z,13.27
2023-04-05T09:01:37.630Z,13.24
2023-04-05T09:04:13.172Z,13.31
2023-04-05T09:06:48.943Z,13.66
2023-04-05T09:09:23.135Z,13.71
2023-04-05T09:11:57.124Z,13.85
2023-04-05T09:14:31.379Z,14.23
2023-04-05T09:17:04.775Z,14.36
2023-04-05T09:19:37.836Z,14.41
2023-04-05T09:22:11.951Z,14.58
2023-04-05T09:24:47.303Z,14.77
2023-04-05T09:27:23.487Z,14.89
2023-04-05T09:30:22.459Z,15.05
2023-04-05T09:32:56.178Z,15.24
2023-04-05T09:35:31.321Z,15.32
2023-04-05T09:38:06.179Z,15.38
2023-04-05T09:40:45.463Z,15.11
2023-04-05T09:43:39.448Z,15.74
2023-04-05T09:46:32.195Z,15.95
2023-04-05T09:49:07.116Z,15.91
2023-04-05T09:51:40.438Z,15.98
2023-04-05T09:54:17.711Z,16.12
2023-04-05T09:56:57.584Z,16.25
2023-04-05T09:59:31.421Z,16.42
2023-04-05T10:02:05.643Z,16.41
2023-04-05T10:04:42.204Z,16.70
2023-04-05T10:07:17.788Z,16.55
2023-04-05T10:09:51.979Z,16.65
2023-04-05T10:12:27.691Z,16.84
2023-04-05T10:15:03.692Z,17.17
2023-04-05T10:17:40.704Z,17.19
2023-04-05T10:20:16.995Z,17.10
2023-04-05T10:22:58.640Z,17.00
2023-04-05T10:25:45.081Z,17.14
2023-04-05T10:28:26.356Z,17.35
2023-04-05T10:31:10.551Z,17.80
2023-04-05T10:33:47.433Z,17.95
2023-04-05T10:36:27.041Z,17.83
2023-04-05T10:39:04.521Z,17.92
2023-04-05T10:41:43.982Z,17.99
2023-04-05T10:44:25.882Z,18.47
2023-04-05T10:47:00.516Z,18.53
2023-04-05T10:49:38.092Z,18.44
2023-04-05T10:52:11.190Z,18.62
2023-04-05T10:54:45.464Z,19.07
2023-04-05T10:57:21.448Z,18.91
2023-04-05T10:59:55.239Z,18.96
2023-04-05T11:02:30.216Z,18.96
2023-04-05T11:05:05.887Z,19.09
2023-04-05T11:07:44.992Z,19.17
2023-04-05T11:10:19.378Z,19.19
2023-04-05T11:13:10.631Z,19.20
2023-04-05T11:15:43.601Z,19.38
2023-04-05T11:18:23.334Z,19.49
2023-04-05T11:21:09.270Z,19.57
2023-04-05T11:24:04.498Z,19.96
2023-04-05T11:26:57.496Z,19.98
2023-04-05T11:29:54.420Z,19.64
2023-04-05T11:32:40.618Z,19.98
2023-04-05T11:35:16.002Z,20.30
2023-04-05T11:37:56.303Z,20.16
2023-04-05T11:40:30.912Z,19.84
2023-04-05T11:43:06.000Z,19.52
2023-04-05T11:45:41.831Z,19.94
2023-04-05T11:48:16.725Z,19.80
2023-04-05T11:50:52.327Z,20.09
2023-04-05T11:53:25.366Z,20.11
2023-04-05T11:56:08.328Z,20.23
2023-04-05T11:58:41.158Z,20.23
2023-04-05T12:01:15.575Z,19.72
2023-04-05T12:03:55.117Z,19.18
2023-04-05T12:06:28.020Z,19.16
2023-04-05T12:09:00.928Z,19.37
2023-04-05T12:11:33.478Z,19.70
2023-04-05T12:14:06.202Z,19.45
2023-04-05T12:16:50.992Z,19.98
2023-04-05T12:19:24.004Z,20.37
2023-04-05T12:21:57.138Z,20.72
2023-04-05T12:24:30.560Z,20.77
2023-04-05T12:27:03.526Z,21.23
2023-04-05T12:29:36.315Z,21.42
2023-04-05T12:32:12.065Z,21.32
2023-04-05T12:34:48.847Z,21.35
2023-04-05T12:37:21.977Z,21.48
2023-04-05T12:39:55.653Z,21.48
2023-04-05T12:42:33.818Z,21.63
2023-04-05T12:45:10.336Z,21.66
2023-04-05T12:47:59.179Z,21.69
2023-04-05T12:50:32.649Z,21.77
2023-04-05T12:53:07.731Z,21.57
2023-04-05T12:55:48.834Z,21.68
2023-04-05T12:58:22.977Z,21.71
2023-04-05T13:00:55.862Z,21.89
2023-04-05T13:03:29.961Z,21.97
2023-04-05T13:06:02.854Z,21.96
2023-04-05T13:08:35.796Z,22.06
2023-04-05T13:11:08.560Z,22.13
2023-04-05T13:13:42.562Z,22.12
2023-04-05T13:16:15.580Z,22.22
2023-04-05T13:18:49.912Z,22.34
2023-04-05T13:21:22.746Z,22.23
2023-04-05T13:23:55.688Z,22.54
2023-04-05T13:26:28.276Z,22.57
2023-04-05T13:29:01.876Z,22.81
2023-04-05T13:31:34.738Z,22.92
2023-04-05T13:34:08.701Z,22.99
2023-04-05T13:36:41.436Z,23.10
2023-04-05T13:39:14.109Z,23.14
2023-04-05T13:41:46.882Z,23.15
2023-04-05T13:44:19.653Z,23.23
2023-04-05T13:46:52.393Z,23.32
2023-04-05T13:49:26.539Z,23.38
2023-04-05T13:51:59.250Z,23.34
2023-04-05T13:57:04.614Z,23.52
2023-04-05T13:59:37.596Z,23.65
2023-04-05T14:02:11.647Z,23.53
2023-04-05T14:04:45.745Z,23.60
2023-04-05T14:07:18.523Z,23.67
2023-04-05T14:09:51.503Z,23.65
2023-04-05T14:12:24.622Z,23.58
2023-04-05T14:14:57.334Z,23.57
2023-04-05T14:17:30.429Z,23.48
2023-04-05T14:20:04.893Z,23.37
2023-04-05T14:22:37.610Z,23.27
2023-04-05T14:25:11.065Z,23.19
2023-04-05T14:27:43.827Z,23.08
2023-04-05T14:30:16.773Z,23.00
2023-04-05T14:32:49.716Z,23.00
2023-04-05T14:35:23.734Z,22.86
2023-04-05T14:37:56.473Z,22.76
2023-04-05T14:40:29.234Z,22.79
2023-04-05T14:43:02.078Z,22.69
2023-04-05T14:45:34.706Z,22.61
2023-04-05T14:48:07.597Z,22.59
2023-04-05T14:50:42.315Z,22.49
2023-04-05T14:53:15.275Z,22.27
2023-04-05T14:55:47.953Z,22.18
2023-04-05T14:58:27.938Z,22.17
2023-04-05T15:01:00.973Z,22.41
2023-04-05T15:03:34.035Z,22.39
2023-04-05T15:06:08.471Z,22.44
2023-04-05T15:08:41.408Z,22.28
2023-04-05T15:11:14.791Z,22.16
2023-04-05T15:13:47.515Z,22.07
2023-04-05T15:16:20.333Z,22.06
2023-04-05T15:18:54.753Z,21.92
2023-04-05T15:21:30.032Z,21.81
2023-04-05T15:24:03.150Z,21.71
2023-04-05T15:26:35.951Z,21.61
2023-04-05T15:29:08.646Z,21.54
2023-04-05T15:31:41.967Z,21.37
2023-04-05T15:34:15.493Z,21.27
2023-04-05T15:36:51.479Z,21.23
2023-04-05T15:39:25.179Z,21.12
2023-04-05T15:41:58.316Z,20.97
2023-04-05T15:44:31.806Z,20.91
2023-04-05T15:47:04.568Z,20.81
2023-04-05T15:49:37.393Z,20.66
2023-04-05T15:52:12.012Z,20.57
2023-04-05T15:54:45.314Z,20.43
2023-04-05T15:57:18.045Z,20.37
2023-04-05T15:59:50.761Z,20.29
2023-04-05T16:02:23.548Z,20.14
2023-04-05T16:04:56.198Z,20.01
2023-04-05T16:07:30.458Z,19.92
2023-04-05T16:10:04.365Z,19.81
2023-04-05T16:12:37.530Z,19.66
2023-04-05T16:15:11.116Z,19.56
2023-04-05T16:17:43.966Z,19.50
2023-04-05T16:20:17.448Z,19.44
2023-04-05T16:22:52.676Z,19.36
2023-04-05T16:25:25.480Z,19.29
2023-04-05T16:27:58.508Z,19.17
2023-04-05T16:30:31.766Z,19.09
2023-04-05T16:33:04.666Z,18.96
2023-04-05T16:35:37.360Z,18.86
2023-04-05T16:38:11.672Z,18.81
2023-04-05T16:40:45.018Z,18.75
2023-04-05T16:43:18.175Z,18.65
2023-04-05T16:45:54.341Z,18.60
2023-04-05T16:48:27.782Z,18.50
2023-04-05T16:51:00.828Z,18.45
2023-04-05T16:53:35.107Z,18.37
2023-04-05T16:56:08.239Z,18.34
2023-04-05T16:58:41.001Z,18.29
2023-04-05T17:01:13.847Z,18.19
2023-04-05T17:03:47.131Z,18.09
2023-04-05T17:06:21.037Z,18.01
2023-04-05T17:08:55.138Z,17.92
2023-04-05T17:11:28.360Z,17.91
2023-04-05T17:14:01.307Z,17.84
2023-04-05T17:16:33.916Z,17.76
2023-04-05T17:19:06.676Z,17.72
2023-04-05T17:21:39.413Z,17.62
2023-04-05T17:24:13.572Z,17.62
2023-04-05T17:26:46.740Z,17.50
2023-04-05T17:29:19.718Z,17.42
2023-04-05T17:31:52.462Z,17.35
2023-04-05T17:34:25.418Z,17.23
2023-04-05T17:36:57.976Z,17.12
2023-04-05T17:39:32.240Z,17.09
2023-04-05T17:42:05.029Z,17.03
2023-04-05T17:44:37.838Z,16.93
2023-04-05T17:47:10.851Z,16.82
2023-04-05T17:49:43.829Z,16.77
2023-04-05T17:52:16.731Z,16.71
2023-04-05T17:54:52.430Z,16.68
2023-04-05T17:57:25.420Z,16.63
2023-04-05T17:59:59.214Z,16.54
2023-04-05T18:02:32.657Z,16.45
2023-04-05T18:05:05.750Z,16.38
2023-04-05T18:07:38.552Z,16.24
2023-04-05T18:10:13.436Z,16.22
2023-04-05T18:12:46.199Z,16.18
2023-04-05T18:15:19.812Z,16.12
2023-04-05T18:17:52.758Z,16.00
2023-04-05T18:20:25.516Z,16.04
2023-04-05T18:22:59.996Z,16.00
2023-04-05T18:25:34.107Z,15.90
2023-04-05T18:28:19.426Z,15.88
2023-04-05T18:30:55.119Z,15.83
2023-04-05T18:33:27.680Z,15.80
2023-04-05T18:36:00.465Z,15.67
2023-04-05T18:38:33.373Z,15.56
2023-04-05T18:41:09.330Z,15.57
2023-04-05T18:43:42.212Z,15.44
2023-04-05T18:46:18.481Z,15.42
2023-04-05T18:48:54.465Z,15.25
2023-04-05T18:51:27.568Z,15.20
2023-04-05T18:54:00.564Z,15.14
2023-04-05T18:56:34.864Z,15.11
2023-04-05T18:59:07.940Z,15.00
2023-04-05T19:01:43.061Z,14.97
2023-04-05T19:04:16.511Z,14.91
2023-04-05T19:06:49.453Z,14.86
2023-04-05T19:09:22.591Z,14.85
2023-04-05T19:11:57.696Z,14.81
2023-04-05T19:14:30.487Z,14.75
2023-04-05T19:17:03.414Z,14.74
2023-04-05T19:19:36.351Z,14.70
2023-04-05T19:22:11.197Z,14.67
2023-04-05T19:24:44.025Z,14.60
2023-04-05T19:27:18.186Z,14.57
2023-04-05T19:29:51.044Z,14.53
2023-04-05T19:32:24.230Z,14.51
2023-04-05T19:34:59.250Z,14.44
2023-04-05T19:37:32.170Z,14.38
2023-04-05T19:40:06.178Z,14.37
2023-04-05T19:42:47.353Z,14.29
2023-04-05T19:45:25.810Z,14.31
2023-04-05T19:48:02.698Z,14.29
2023-04-05T19:50:49.936Z,14.23
2023-04-05T19:53:44.124Z,14.22
2023-04-05T19:56:20.306Z,14.17
2023-04-05T19:58:59.382Z,14.10
2023-04-05T20:01:36.558Z,14.02
2023-04-05T20:04:13.126Z,14.01
2023-04-05T20:06:53.070Z,13.91
2023-04-05T20:09:28.849Z,13.93
2023-04-05T20:12:03.604Z,13.87
2023-04-05T20:14:42.404Z,13.85
2023-04-05T20:17:19.025Z,13.82
2023-04-05T20:19:57.652Z,13.79
2023-04-05T20:22:36.146Z,13.79
2023-04-05T20:25:37.590Z,13.79
2023-04-05T20:28:34.939Z,13.72
2023-04-05T20:31:11.245Z,13.69
2023-04-05T20:33:49.445Z,13.64
2023-04-05T20:36:24.605Z,13.55
2023-04-05T20:38:57.964Z,13.60
2023-04-05T20:41:33.995Z,13.61
2023-04-05T20:44:06.990Z,13.61
2023-04-05T20:46:41.110Z,13.53
2023-04-05T20:49:13.914Z,13.43
2023-04-05T20:51:47.208Z,13.46
2023-04-05T20:54:21.124Z,13.45
2023-04-05T20:56:54.031Z,13.37
2023-04-05T20:59:27.363Z,13.35
2023-04-05T21:02:01.863Z,13.39
2023-04-05T21:04:34.707Z,13.36
2023-04-05T21:07:07.611Z,13.18
2023-04-05T21:09:40.592Z,13.19
2023-04-05T21:12:13.247Z,13.19
2023-04-05T21:14:46.330Z,13.16
2023-04-05T21:17:20.520Z,13.16
2023-04-05T21:19:54.134Z,13.16
2023-04-05T21:22:27.039Z,13.10
2023-04-05T21:24:59.864Z,13.08
2023-04-05T21:27:32.595Z,13.06
2023-04-05T21:30:06.353Z,13.06
2023-04-05T21:32:40.754Z,13.02
2023-04-05T21:35:13.827Z,13.04
2023-04-05T21:37:46.631Z,12.88
2023-04-05T21:40:19.679Z,12.84
2023-04-05T21:42:52.650Z,12.86
2023-04-05T21:45:25.654Z,12.84
2023-04-05T21:47:59.888Z,12.81
2023-04-05T21:50:32.675Z,12.90
2023-04-05T21:53:07.326Z,12.85
2023-04-05T21:55:40.219Z,12.80
2023-04-05T21:58:12.986Z,12.74
2023-04-05T22:00:45.763Z,12.81
2023-04-05T22:03:19.912Z,12.70
2023-04-05T22:05:52.706Z,12.66
2023-04-05T22:08:26.785Z,12.64
2023-04-05T22:10:59.622Z,12.66
2023-04-05T22:13:32.284Z,12.61
2023-04-05T22:16:05.278Z,12.61
2023-04-05T22:18:39.941Z,12.56
2023-04-05T22:21:12.693Z,12.57
2023-04-05T22:23:45.721Z,12.51
2023-04-05T22:26:18.275Z,12.54
2023-04-05T22:28:51.072Z,12.52
2023-04-05T22:31:23.817Z,12.48
2023-04-05T22:33:58.035Z,12.48
2023-04-05T22:36:31.499Z,12.44
2023-04-05T22:39:04.432Z,12.38
2023-04-05T22:41:37.022Z,12.40
2023-04-05T22:44:10.492Z,12.38
2023-04-05T22:46:43.244Z,12.33
2023-04-05T22:49:17.704Z,12.29
2023-04-05T22:51:50.344Z,12.29
2023-04-05T22:54:23.253Z,12.27
2023-04-05T22:56:55.954Z,12.24
2023-04-05T22:59:28.844Z,12.25
2023-04-05T23:02:01.573Z,12.23
2023-04-05T23:04:35.763Z,12.17
2023-04-05T23:07:08.685Z,12.14
2023-04-05T23:09:41.450Z,12.13
2023-04-05T23:12:14.261Z,12.09
2023-04-05T23:14:47.220Z,12.09
2023-04-05T23:17:20.057Z,12.02
2023-04-05T23:19:54.717Z,12.08
2023-04-05T23:22:27.533Z,12.06
2023-04-05T23:25:02.650Z,12.04
2023-04-05T23:27:35.328Z,12.05
2023-04-05T23:30:09.301Z,11.96
2023-04-05T23:32:42.087Z,12.04
2023-04-05T23:35:16.574Z,11.93
2023-04-05T23:37:49.457Z,11.88
2023-04-05T23:40:22.209Z,11.91
2023-04-05T23:42:57.034Z,11.92
2023-04-05T23:45:29.904Z,11.86
2023-04-05T23:48:02.571Z,11.89
2023-04-05T23:50:36.712Z,11.80
2023-04-05T23:53:09.430Z,11.76
2023-04-05T23:55:42.175Z,11.76
2023-04-05T23:58:15.061Z,11.75
